Time;durP1;ratioP1;P1;durP2;ratioP2;P2;SDS_P1;SDS_P2;PMS_P1;PMS_P2;Temp;Humidity;BMP_temperature;BMP_pressure;BME280_temperature;BME280_humidity;BME280_pressure;Samples;Min_cycle;Max_cycle;Signal;HPM_P1;HPM_P2
2022/06/27 04:31:17;;;;;;;;;2.00;2.00;;;;;18.01;61.37;101159.81;1426090;26;46013;-74
2022/06/27 04:33:44;;;;;;;;;4.50;3.00;;;;;17.96;61.21;101180.94;5034802;28;45347;-73
2022/06/27 04:36:09;;;;;;;;;2.00;2.00;;;;;17.89;61.59;101183.22;5050809;28;45261;-74
2022/06/27 04:38:36;;;;;;;;;4.50;2.75;;;;;17.81;61.72;101169.31;5033452;28;46378;-74
2022/06/27 04:41:01;;;;;;;;;6.25;3.00;;;;;17.90;61.74;101176.84;5035104;28;45574;-75
2022/06/27 04:43:27;;;;;;;;;3.75;3.00;;;;;18.01;61.49;101195.09;5035287;28;45327;-74
2022/06/27 04:45:54;;;;;;;;;1.00;1.00;;;;;18.00;61.05;101186.06;5035472;28;45431;-75
2022/06/27 04:48:20;;;;;;;;;1.75;1.75;;;;;18.04;61.56;101175.84;5034923;28;45367;-74
2022/06/27 04:50:46;;;;;;;;;1.75;1.75;;;;;18.11;61.47;101183.50;5034850;28;46031;-73
2022/06/27 04:53:13;;;;;;;;;2.75;2.75;;;;;17.89;61.18;101125.41;5034530;28;45257;-75
2022/06/27 04:55:39;;;;;;;;;2.00;2.00;;;;;18.16;61.63;101169.56;5035055;28;45276;-74
2022/06/27 04:58:04;;;;;;;;;2.50;2.50;;;;;18.21;60.94;101166.53;5034601;28;45455;-73
2022/06/27 05:00:30;;;;;;;;;3.75;3.75;;;;;18.19;61.31;101171.22;5034944;28;45820;-74
2022/06/27 05:02:56;;;;;;;;;4.00;3.00;;;;;18.13;61.49;101153.50;5034443;28;45306;-76
2022/06/27 05:05:21;;;;;;;;;1.00;1.00;;;;;18.07;61.29;101132.25;5035080;28;45898;-74
2022/06/27 05:07:46;;;;;;;;;2.75;2.50;;;;;18.11;60.81;101131.94;5034357;28;45509;-76
2022/06/27 05:10:12;;;;;;;;;2.00;2.00;;;;;18.11;61.06;101133.78;5034674;28;45407;-74
2022/06/27 05:12:38;;;;;;;;;2.75;2.00;;;;;18.13;60.94;101140.81;5034384;28;45315;-72
2022/06/27 05:15:03;;;;;;;;;1.00;1.00;;;;;18.06;60.62;101146.78;5033635;28;45391;-74
2022/06/27 05:17:30;;;;;;;;;4.00;2.75;;;;;18.14;61.17;101157.97;5034544;28;45438;-72
2022/06/27 05:19:55;;;;;;;;;1.00;1.00;;;;;18.12;60.84;101154.47;5033393;28;46551;-74
2022/06/27 05:22:21;;;;;;;;;1.00;1.00;;;;;18.18;60.96;101164.06;5034226;28;45232;-77
2022/06/27 05:24:48;;;;;;;;;4.25;3.50;;;;;18.20;60.94;101173.81;5034621;28;45343;-74
2022/06/27 05:27:14;;;;;;;;;2.00;2.00;;;;;18.17;60.53;101155.03;5033045;28;46068;-74
2022/06/27 05:29:39;;;;;;;;;1.75;1.75;;;;;18.14;59.90;101136.25;5034185;28;46412;-71
2022/06/27 05:32:06;;;;;;;;;2.00;2.00;;;;;18.27;60.81;101158.84;5023589;28;45389;-69
2022/06/27 05:34:31;;;;;;;;;3.50;2.25;;;;;18.22;60.38;101169.13;5014693;28;45327;-69
2022/06/27 05:36:57;;;;;;;;;2.00;2.00;;;;;18.24;60.42;101179.88;5014785;28;45349;-72
2022/06/27 05:39:22;;;;;;;;;3.25;2.00;;;;;18.21;60.00;101158.38;5014497;28;45988;-70
2022/06/27 05:41:48;;;;;;;;;3.00;3.00;;;;;18.21;60.21;101172.81;5014469;28;45400;-73
2022/06/27 05:44:13;;;;;;;;;2.00;2.00;;;;;18.27;60.32;101194.13;5014648;28;45378;-72
2022/06/27 05:46:40;;;;;;;;;2.00;2.00;;;;;18.25;60.19;101198.78;5014188;28;45428;-72
2022/06/27 05:49:11;;;;;;;;;2.00;2.00;;;;;18.23;60.05;101184.44;5014304;28;46209;-71
2022/06/27 05:51:37;;;;;;;;;2.00;2.00;;;;;18.18;60.48;101177.63;5014157;28;45393;-75
2022/06/27 05:54:04;;;;;;;;;3.00;3.00;;;;;18.13;60.08;101164.34;5013831;28;45373;-73
2022/06/27 05:56:30;;;;;;;;;2.75;2.50;;;;;18.19;60.30;101190.22;5013975;28;45594;-71
2022/06/27 05:58:55;;;;;;;;;1.50;1.50;;;;;18.17;60.43;101195.75;5013966;28;46843;-70
2022/06/27 06:01:22;;;;;;;;;2.25;2.25;;;;;18.13;60.38;101205.06;5014157;28;46626;-72
2022/06/27 06:03:47;;;;;;;;;4.75;3.00;;;;;18.00;60.37;101186.06;5014284;28;45416;-73
2022/06/27 06:06:13;;;;;;;;;3.25;3.00;;;;;18.01;60.35;101195.09;5013815;28;45522;-72
2022/06/27 06:08:39;;;;;;;;;2.50;2.00;;;;;18.07;60.71;101213.63;5013808;28;46086;-71
2022/06/27 06:11:05;;;;;;;;;3.00;3.00;;;;;18.04;60.35;101220.13;5014450;28;45461;-71
2022/06/27 06:13:30;;;;;;;;;3.00;2.50;;;;;18.04;60.80;101203.00;5014350;28;45387;-73
2022/06/27 06:15:57;;;;;;;;;3.50;3.50;;;;;17.99;60.89;101200.59;4997956;28;45336;-70
2022/06/27 06:18:23;;;;;;;;;3.75;2.50;;;;;18.06;61.44;101223.63;5013433;28;45533;-71
2022/06/27 06:20:49;;;;;;;;;1.75;1.75;;;;;18.09;61.64;101203.56;4996115;28;45439;-72
2022/06/27 06:23:15;;;;;;;;;4.00;3.00;;;;;18.09;61.75;101179.13;5015698;28;45562;-71
2022/06/27 06:25:43;;;;;;;;;3.00;3.00;;;;;18.20;61.34;101189.25;5015813;28;45464;-71
2022/06/27 06:28:09;;;;;;;;;3.50;3.50;;;;;18.21;61.07;101228.94;5015658;28;46416;-75
2022/06/27 06:30:35;;;;;;;;;3.50;3.00;;;;;18.06;61.50;101217.31;5015818;28;45217;-70
2022/06/27 06:33:04;;;;;;;;;4.25;3.00;;;;;18.00;61.62;101218.63;5031029;28;45415;-73
2022/06/27 06:35:31;;;;;;;;;1.50;1.50;;;;;18.18;61.39;101215.63;5036927;28;45517;-69
2022/06/27 06:37:58;;;;;;;;;3.00;3.00;;;;;18.13;61.27;101224.94;5037827;28;45247;-69
2022/06/27 06:40:24;;;;;;;;;1.50;1.50;;;;;18.21;61.49;101242.53;5036607;28;45304;-71
2022/06/27 06:42:50;;;;;;;;;3.00;2.00;;;;;18.17;61.41;101244.59;5035713;28;45625;-70
2022/06/27 06:45:15;;;;;;;;;5.00;2.25;;;;;18.14;61.68;101234.81;5035214;28;45505;-70
2022/06/27 06:47:42;;;;;;;;;2.00;2.00;;;;;18.24;61.35;101231.47;5035428;28;45506;-70
2022/06/27 06:50:10;;;;;;;;;3.00;3.00;;;;;18.38;61.23;101253.06;5034721;28;45506;-71
2022/06/27 06:52:39;;;;;;;;;2.50;2.00;;;;;18.32;60.96;101238.09;5035441;28;45355;-70
2022/06/27 06:55:06;;;;;;;;;2.25;2.25;;;;;18.46;60.18;101262.41;5037687;28;45574;-75
2022/06/27 06:57:31;;;;;;;;;2.00;2.00;;;;;18.48;60.52;101274.03;5031023;28;45778;-71
2022/06/27 06:59:56;;;;;;;;;3.25;2.00;;;;;18.53;60.44;101282.75;5035269;28;45688;-71
2022/06/27 07:02:22;;;;;;;;;3.50;2.75;;;;;18.41;60.15;101269.16;5046269;28;45605;-74
2022/06/27 07:04:47;;;;;;;;;3.75;3.00;;;;;18.39;60.34;101309.97;5039660;28;45323;-71
2022/06/27 07:07:13;;;;;;;;;3.25;3.25;;;;;18.10;60.65;101287.56;5022263;28;47176;-71
2022/06/27 07:09:39;;;;;;;;;3.50;1.75;;;;;18.08;60.85;101311.22;5048907;28;45381;-71
2022/06/27 07:12:05;;;;;;;;;3.00;3.00;;;;;18.01;61.76;101314.47;5036959;28;46041;-70
2022/06/27 07:14:31;;;;;;;;;2.75;2.50;;;;;18.06;61.33;101317.72;5038755;28;45390;-70
2022/06/27 07:16:56;;;;;;;;;2.00;2.00;;;;;18.13;61.29;101325.34;5041195;28;45441;-69
2022/06/27 07:19:22;;;;;;;;;3.00;3.00;;;;;18.09;60.94;101314.81;5040551;28;45536;-69
2022/06/27 07:21:47;;;;;;;;;4.50;3.00;;;;;18.19;61.36;101325.91;5033780;28;45362;-69
2022/06/27 07:24:12;;;;;;;;;4.50;3.00;;;;;18.18;60.78;101325.03;5031957;28;45505;-69
2022/06/27 07:26:38;;;;;;;;;4.00;3.00;;;;;18.13;60.80;101308.19;5033827;28;46052;-71
2022/06/27 07:29:04;;;;;;;;;3.00;3.00;;;;;18.26;60.55;101324.50;5035172;28;45273;-70
2022/06/27 07:31:31;;;;;;;;;0.00;0.00;;;;;18.20;59.75;101312.25;5031898;28;45721;-74
2022/06/27 07:33:56;;;;;;;;;2.25;2.25;;;;;18.32;60.15;101314.09;5014734;28;45691;-72
2022/06/27 07:36:25;;;;;;;;;3.00;2.00;;;;;18.22;59.84;101284.97;5012212;28;45578;-71
2022/06/27 07:38:52;;;;;;;;;4.50;2.00;;;;;18.54;59.18;101319.75;5013950;28;45546;-70
2022/06/27 07:41:22;;;;;;;;;2.00;2.00;;;;;18.65;59.29;101320.88;5013515;28;45313;-72
2022/06/27 07:43:49;;;;;;;;;2.00;2.00;;;;;18.73;58.17;101322.09;4999169;28;47270;-70
2022/06/27 07:46:17;;;;;;;;;3.00;3.00;;;;;18.84;57.93;101319.50;5021668;28;45967;-69
2022/06/27 07:48:44;;;;;;;;;2.75;2.25;;;;;18.84;57.53;101330.34;5017236;28;45636;-69
2022/06/27 07:51:09;;;;;;;;;1.75;1.75;;;;;18.79;57.53;101327.09;5019481;28;45584;-69
2022/06/27 07:53:36;;;;;;;;;2.00;2.00;;;;;18.76;57.70;101331.88;5013323;28;45943;-70
2022/06/27 07:56:03;;;;;;;;;2.25;2.25;;;;;18.82;58.20;101328.72;5013376;28;46656;-72
2022/06/27 07:58:35;;;;;;;;;4.50;3.00;;;;;18.85;57.62;101332.09;5013635;28;45531;-69
2022/06/27 08:01:04;;;;;;;;;1.25;1.25;;;;;18.93;57.60;101327.97;5011032;28;45356;-70
2022/06/27 08:03:36;;;;;;;;;2.00;2.00;;;;;18.98;57.28;101323.94;5013198;28;45355;-70
2022/06/27 08:06:15;;;;;;;;;3.50;2.00;;;;;19.12;57.23;101337.41;5014073;28;45714;-71
2022/06/27 08:08:43;;;;;;;;;1.50;1.25;;;;;19.18;57.10;101344.25;5014212;28;45380;-70
2022/06/27 08:11:15;;;;;;;;;3.75;3.25;;;;;19.19;57.35;101338.69;5013919;28;45376;-68
2022/06/27 08:13:43;;;;;;;;;2.25;2.25;;;;;19.26;56.83;101339.13;5013942;28;45615;-69
2022/06/27 08:16:09;;;;;;;;;2.75;2.75;;;;;19.20;56.63;101350.44;5012208;28;46819;-70
2022/06/27 08:18:38;;;;;;;;;2.75;2.75;;;;;19.18;56.73;101358.72;5013351;28;45579;-71
2022/06/27 08:21:04;;;;;;;;;2.25;2.25;;;;;19.08;57.15;101362.19;5013431;28;45471;-70
2022/06/27 08:23:31;;;;;;;;;3.00;2.00;;;;;19.03;56.41;101381.56;5013693;28;45549;-69
2022/06/27 08:25:57;;;;;;;;;2.00;2.00;;;;;18.94;56.98;101393.06;5013662;28;46012;-70
2022/06/27 08:28:25;;;;;;;;;1.50;1.50;;;;;18.94;57.33;101375.91;5013622;28;45406;-71
2022/06/27 08:30:52;;;;;;;;;2.00;2.00;;;;;18.82;57.64;101358.59;5000270;28;45645;-70
2022/06/27 08:33:18;;;;;;;;;3.50;2.00;;;;;18.75;57.72;101379.03;5033131;28;46005;-71
2022/06/27 08:35:47;;;;;;;;;2.50;1.50;;;;;18.78;58.27;101374.28;5032408;28;46045;-70
2022/06/27 08:38:22;;;;;;;;;1.75;1.75;;;;;18.74;59.21;101380.88;5032546;28;45674;-75
2022/06/27 08:40:48;;;;;;;;;2.25;2.25;;;;;18.64;59.74;101363.47;5032802;28;45433;-70
2022/06/27 08:43:13;;;;;;;;;2.25;2.00;;;;;18.71;59.43;101355.78;5033471;28;46240;-70
2022/06/27 08:45:39;;;;;;;;;2.00;2.00;;;;;18.64;59.92;101359.88;5032997;28;47168;-71
2022/06/27 08:48:09;;;;;;;;;1.75;1.75;;;;;18.72;58.70;101360.22;5033403;28;45585;-73
2022/06/27 08:50:35;;;;;;;;;2.00;2.00;;;;;18.82;58.37;101366.75;5029727;28;45370;-70
2022/06/27 08:53:02;;;;;;;;;2.75;0.50;;;;;18.82;57.20;101364.03;5033276;28;45307;-70
2022/06/27 08:55:30;;;;;;;;;2.00;2.00;;;;;18.76;57.98;101334.59;5039218;28;46778;-74
2022/06/27 08:58:03;;;;;;;;;3.25;2.00;;;;;19.01;56.66;101358.19;5036168;28;45410;-71
2022/06/27 09:00:30;;;;;;;;;2.25;2.25;;;;;19.08;56.55;101360.34;5032948;28;45469;-72
2022/06/27 09:02:55;;;;;;;;;1.00;1.00;;;;;19.01;56.82;101350.91;5032837;28;45478;-73
2022/06/27 09:05:26;;;;;;;;;1.00;1.00;;;;;19.12;57.30;101358.28;5032435;28;46187;-71
2022/06/27 09:07:56;;;;;;;;;2.00;2.00;;;;;19.18;56.86;101355.13;5031924;28;45545;-70
2022/06/27 09:10:26;;;;;;;;;1.00;1.00;;;;;19.20;55.33;101358.59;5033631;28;45501;-70
2022/06/27 09:12:57;;;;;;;;;1.00;1.00;;;;;19.23;54.40;101351.06;5033158;28;45489;-70
2022/06/27 09:15:29;;;;;;;;;1.00;1.00;;;;;19.31;54.16;101349.69;5033611;28;45432;-70
2022/06/27 09:18:00;;;;;;;;;3.25;2.25;;;;;19.37;52.36;101355.53;5020168;28;45586;-71
2022/06/27 09:20:48;;;;;;;;;2.75;2.75;;;;;19.44;51.72;101362.25;5033219;28;45388;-70
2022/06/27 09:23:54;;;;;;;;;1.25;1.25;;;;;19.51;52.50;101359.97;5033571;28;46149;-71
2022/06/27 09:26:28;;;;;;;;;3.00;2.00;;;;;19.51;52.26;101346.38;5034261;28;45660;-70
2022/06/27 09:29:03;;;;;;;;;1.00;1.00;;;;;19.59;52.05;101354.84;5034591;28;45416;-71
2022/06/27 09:31:35;;;;;;;;;1.00;1.00;;;;;19.65;51.90;101357.09;5033210;28;45442;-71
2022/06/27 09:34:19;;;;;;;;;1.00;1.00;;;;;19.70;51.20;101371.25;5040255;28;45541;-71
2022/06/27 09:36:57;;;;;;;;;1.00;1.00;;;;;19.70;51.13;101368.53;5033833;28;45379;-69
2022/06/27 09:39:39;;;;;;;;;2.00;2.00;;;;;19.73;51.64;101371.03;5034013;28;45383;-71
2022/06/27 09:42:07;;;;;;;;;1.00;1.00;;;;;19.67;51.51;101351.56;5032813;28;45697;-72
2022/06/27 09:44:38;;;;;;;;;2.00;1.00;;;;;19.76;50.57;101353.59;5033455;28;45350;-72
2022/06/27 09:47:17;;;;;;;;;2.75;1.25;;;;;19.86;50.31;101365.53;5033734;28;45440;-70
2022/06/27 09:49:44;;;;;;;;;2.00;2.00;;;;;19.90;50.05;101354.31;5033614;28;45351;-72
2022/06/27 09:52:13;;;;;;;;;0.75;0.75;;;;;19.94;50.82;101354.94;5032475;28;45471;-73
2022/06/27 09:54:41;;;;;;;;;0.25;0.25;;;;;19.98;50.32;101353.75;5031124;28;46197;-71
2022/06/27 09:57:08;;;;;;;;;1.75;1.00;;;;;20.01;50.69;101357.06;5032940;28;46128;-71
2022/06/27 09:59:35;;;;;;;;;3.00;0.75;;;;;20.01;50.30;101367.09;5044069;28;45446;-72
2022/06/27 10:02:01;;;;;;;;;1.50;1.50;;;;;20.02;49.99;101357.94;5033573;28;45300;-71
2022/06/27 10:04:29;;;;;;;;;1.50;0.50;;;;;20.03;50.57;101349.66;5033888;28;46064;-72
2022/06/27 10:07:00;;;;;;;;;0.00;0.00;;;;;19.99;51.04;101340.00;5023812;28;46203;-75
2022/06/27 10:09:26;;;;;;;;;2.00;2.00;;;;;20.16;51.53;101365.94;5025934;28;45458;-74
2022/06/27 10:12:28;;;;;;;;;1.50;1.50;;;;;20.08;50.21;101346.59;5021652;28;45576;-70
2022/06/27 10:15:14;;;;;;;;;2.75;1.75;;;;;20.22;48.65;101356.44;4981857;28;45869;-69
2022/06/27 10:17:41;;;;;;;;;2.00;2.00;;;;;20.30;48.28;101360.31;5026537;28;46358;-71
2022/06/27 10:20:15;;;;;;;;;0.25;0.25;;;;;20.36;48.31;101367.16;5021131;28;45340;-72
2022/06/27 10:22:41;;;;;;;;;1.00;1.00;;;;;20.40;48.01;101365.97;5030670;28;45576;-70
2022/06/27 10:25:25;;;;;;;;;0.00;0.00;;;;;20.46;46.75;101370.06;5033043;28;47497;-73
2022/06/27 10:28:14;;;;;;;;;1.75;1.75;;;;;20.49;46.28;101370.69;5032220;28;46103;-75
2022/06/27 10:30:45;;;;;;;;;1.00;1.00;;;;;20.55;46.75;101361.16;5031955;28;45585;-73
2022/06/27 10:33:25;;;;;;;;;1.00;1.00;;;;;20.64;47.09;101372.22;5013251;28;45328;-72
2022/06/27 10:36:02;;;;;;;;;1.00;0.75;;;;;20.76;46.71;101367.66;5013747;28;45270;-72
2022/06/27 10:38:32;;;;;;;;;2.50;1.00;;;;;20.83;45.64;101358.03;4995162;28;45418;-72
2022/06/27 10:41:00;;;;;;;;;1.00;1.00;;;;;20.82;45.29;101359.00;5013798;28;45459;-72
2022/06/27 10:43:51;;;;;;;;;0.75;0.75;;;;;20.88;44.94;101365.81;5013581;28;45408;-72
2022/06/27 10:46:16;;;;;;;;;2.00;2.00;;;;;20.94;45.95;101362.59;5013615;28;45407;-72
2022/06/27 10:48:48;;;;;;;;;0.00;0.00;;;;;21.06;46.78;101367.09;5011980;28;45463;-72
2022/06/27 10:51:29;;;;;;;;;3.00;1.00;;;;;21.21;46.51;101370.47;5013339;28;45333;-73
2022/06/27 10:54:04;;;;;;;;;1.00;1.00;;;;;21.29;45.12;101363.41;5013010;28;45253;-72
2022/06/27 10:56:34;;;;;;;;;2.00;0.75;;;;;21.35;45.55;101362.06;5013549;28;45548;-75
2022/06/27 10:59:01;;;;;;;;;1.75;1.75;;;;;21.31;44.84;101369.63;5013500;28;45374;-68
2022/06/27 11:01:28;;;;;;;;;1.00;1.00;;;;;21.28;45.68;101372.59;5016649;28;45423;-69
2022/06/27 11:03:54;;;;;;;;;2.00;2.00;;;;;21.33;45.83;101367.66;5013083;28;45436;-69
2022/06/27 11:06:19;;;;;;;;;3.25;1.75;;;;;21.42;45.89;101369.63;5015216;28;45569;-69
2022/06/27 11:08:51;;;;;;;;;1.00;1.00;;;;;21.55;45.33;101374.06;5017301;28;45654;-69
2022/06/27 11:11:30;;;;;;;;;1.00;1.00;;;;;21.61;43.38;101363.50;5015226;28;45412;-72
2022/06/27 11:13:57;;;;;;;;;0.75;0.75;;;;;21.66;44.19;101360.41;5016727;28;45461;-69
2022/06/27 11:16:32;;;;;;;;;1.00;1.00;;;;;21.72;42.92;101346.25;5016442;28;45587;-70
2022/06/27 11:20:04;;;;;;;;;2.50;1.00;;;;;21.82;43.83;101353.56;5016334;28;46301;-71
2022/06/27 11:21:53;;;;;;;;;2.00;0.00;;;;;21.90;43.33;101352.91;5016045;28;45203;-70
2022/06/27 11:24:19;;;;;;;;;1.00;1.00;;;;;21.92;42.49;101352.78;5016021;28;45422;-72
2022/06/27 11:26:49;;;;;;;;;1.00;1.00;;;;;21.98;42.20;101366.81;5014472;28;45610;-70
2022/06/27 11:32:08;;;;;;;;;4.00;1.00;;;;;21.88;39.89;101368.53;5015301;28;45486;-69
2022/06/27 11:34:36;;;;;;;;;0.25;0.25;;;;;21.92;40.63;101356.38;5013335;28;45577;-70
2022/06/27 11:37:23;;;;;;;;;1.25;1.25;;;;;22.04;39.61;101363.56;4981402;28;46211;-69
2022/06/27 11:40:02;;;;;;;;;1.00;1.00;;;;;22.05;38.56;101356.25;5008603;28;45463;-70
2022/06/27 11:42:30;;;;;;;;;0.75;0.75;;;;;22.07;39.32;101344.22;5018880;28;45961;-69
2022/06/27 11:45:09;;;;;;;;;1.50;1.50;;;;;22.25;39.23;101347.25;5018929;28;45391;-71
2022/06/27 11:47:37;;;;;;;;;1.75;1.00;;;;;22.44;37.21;101362.94;5015508;28;46496;-70
2022/06/27 11:50:23;;;;;;;;;1.00;1.00;;;;;22.47;36.31;101355.31;5015388;28;45420;-70
2022/06/27 11:52:51;;;;;;;;;0.00;0.00;;;;;22.46;36.21;101341.78;5013257;28;45514;-71
2022/06/27 11:55:24;;;;;;;;;1.00;0.25;;;;;22.60;36.46;101357.88;5002263;28;45417;-70
2022/06/27 11:57:55;;;;;;;;;2.00;1.00;;;;;22.72;35.93;101343.13;5015097;28;45713;-70
2022/06/27 12:00:23;;;;;;;;;3.50;1.00;;;;;22.80;35.27;101346.09;5015496;28;46262;-68
2022/06/27 12:03:12;;;;;;;;;1.00;1.00;;;;;23.00;36.18;101344.34;5015658;28;45457;-68
2022/06/27 12:05:40;;;;;;;;;2.00;0.50;;;;;23.12;34.34;101353.34;5005123;28;45341;-71
2022/06/27 12:08:13;;;;;;;;;0.75;0.75;;;;;23.26;34.87;101361.16;5015369;28;45510;-71
2022/06/27 12:13:36;;;;;;;;;0.50;0.50;;;;;23.32;32.94;101361.47;5014982;28;45339;-69
2022/06/27 12:16:03;;;;;;;;;0.00;0.00;;;;;23.41;31.28;101359.78;5015034;28;45352;-69
2022/06/27 12:18:33;;;;;;;;;0.00;0.00;;;;;23.44;30.51;101353.19;5014775;28;45403;-70
2022/06/27 12:20:59;;;;;;;;;1.50;0.00;;;;;23.54;31.67;101362.34;5015167;28;45638;-69
2022/06/27 12:23:24;;;;;;;;;0.75;0.75;;;;;23.67;32.26;101350.13;5014427;28;45363;-71
2022/06/27 12:25:49;;;;;;;;;0.00;0.00;;;;;23.78;31.12;101357.34;5015377;28;45499;-70
2022/06/27 12:28:14;;;;;;;;;0.00;0.00;;;;;23.85;31.98;101358.53;5015306;28;45313;-70
2022/06/27 12:30:40;;;;;;;;;0.00;0.00;;;;;24.02;31.72;101370.66;5014511;28;49443;-70
2022/06/27 12:33:05;;;;;;;;;0.50;0.50;;;;;24.11;31.64;101365.19;5014740;28;45450;-68
2022/06/27 12:35:31;;;;;;;;;0.00;0.00;;;;;24.21;31.59;101367.13;5014999;28;45503;-69
2022/06/27 12:38:01;;;;;;;;;0.00;0.00;;;;;24.39;31.91;101371.75;5014922;28;45522;-71
2022/06/27 12:40:26;;;;;;;;;0.00;0.00;;;;;24.58;31.54;101373.63;5014978;28;45372;-71
2022/06/27 12:42:52;;;;;;;;;0.00;0.00;;;;;24.67;32.05;101380.09;4997089;28;45358;-70
2022/06/27 12:45:17;;;;;;;;;0.75;0.75;;;;;24.76;31.75;101379.19;5014771;28;45440;-70
2022/06/27 12:47:42;;;;;;;;;0.00;0.00;;;;;24.88;30.56;101373.41;5014500;28;45570;-71
2022/06/27 12:50:08;;;;;;;;;0.00;0.00;;;;;24.99;30.41;101374.31;5014647;28;45392;-69
2022/06/27 12:52:34;;;;;;;;;0.00;0.00;;;;;25.01;29.98;101380.50;5014855;28;45392;-69
2022/06/27 12:54:59;;;;;;;;;0.00;0.00;;;;;25.02;29.39;101379.47;5014246;28;45491;-69
2022/06/27 12:57:25;;;;;;;;;0.50;0.00;;;;;25.17;30.39;101389.84;5014628;28;45566;-69
2022/06/27 12:59:51;;;;;;;;;0.25;0.25;;;;;25.26;29.80;101380.69;5014431;28;46866;-71
2022/06/27 13:02:17;;;;;;;;;0.00;0.00;;;;;25.26;28.98;101380.69;5014768;28;45312;-71
2022/06/27 13:04:43;;;;;;;;;0.00;0.00;;;;;25.26;28.81;101383.44;5014377;28;45451;-70
2022/06/27 13:07:08;;;;;;;;;0.25;0.25;;;;;25.18;28.77;101372.34;5014806;28;45417;-72
2022/06/27 13:09:34;;;;;;;;;0.00;0.00;;;;;25.35;28.73;101398.13;5014647;28;45603;-68
2022/06/27 13:11:59;;;;;;;;;2.00;0.00;;;;;25.22;28.63;101379.28;5014590;28;45463;-68
2022/06/27 13:14:24;;;;;;;;;2.00;0.50;;;;;25.30;29.34;101396.88;5014495;28;45392;-69
2022/06/27 13:16:51;;;;;;;;;0.50;0.25;;;;;25.45;28.64;101398.97;5014449;28;45319;-70
2022/06/27 13:19:16;;;;;;;;;0.00;0.00;;;;;25.57;28.77;101391.44;5014080;28;46433;-71
2022/06/27 13:21:42;;;;;;;;;0.25;0.25;;;;;25.48;28.74;101386.84;5014282;28;45479;-68
2022/06/27 13:24:07;;;;;;;;;0.50;0.00;;;;;25.61;29.62;101387.38;5013747;28;45270;-70
2022/06/27 13:26:32;;;;;;;;;0.00;0.00;;;;;25.84;29.10;101401.59;5014351;28;45538;-70
2022/06/27 13:28:58;;;;;;;;;1.50;0.00;;;;;26.00;28.98;101410.03;5014198;28;45432;-67
2022/06/27 13:31:23;;;;;;;;;0.00;0.00;;;;;26.10;28.40;101393.47;5014170;28;45349;-71
2022/06/27 13:33:49;;;;;;;;;0.00;0.00;;;;;26.29;27.35;101398.84;5014195;28;45455;-70
2022/06/27 13:36:14;;;;;;;;;0.75;0.75;;;;;26.47;27.02;101396.97;5014326;28;45679;-69
2022/06/27 13:38:41;;;;;;;;;0.00;0.00;;;;;26.32;28.08;101401.28;5013310;28;46453;-71
2022/06/27 13:41:06;;;;;;;;;0.00;0.00;;;;;26.20;27.51;101413.53;5014241;28;45357;-69
2022/06/27 13:43:31;;;;;;;;;0.00;0.00;;;;;26.26;28.26;101410.16;5013832;28;45996;-68
2022/06/27 13:45:57;;;;;;;;;0.00;0.00;;;;;26.37;26.99;101408.03;5014097;28;45406;-69
2022/06/27 13:48:22;;;;;;;;;0.00;0.00;;;;;26.19;26.86;101403.53;5013912;28;45369;-70
2022/06/27 13:50:47;;;;;;;;;0.75;0.75;;;;;25.97;27.03;101400.19;5014606;28;45431;-70
2022/06/27 13:53:13;;;;;;;;;0.00;0.00;;;;;25.85;27.41;101393.19;5013247;28;45926;-70
2022/06/27 13:55:38;;;;;;;;;0.00;0.00;;;;;26.15;27.32;101394.72;5013486;28;45517;-68
2022/06/27 13:58:05;;;;;;;;;0.00;0.00;;;;;26.53;27.46;101403.75;5013748;28;45620;-69
2022/06/27 14:00:39;;;;;;;;;0.50;0.00;;;;;26.96;26.23;101417.56;5013770;28;45445;-70
2022/06/27 14:03:05;;;;;;;;;1.25;0.00;;;;;27.15;26.66;101421.13;5013893;28;45413;-69
2022/06/27 14:05:31;;;;;;;;;0.00;0.00;;;;;27.18;26.57;101416.16;5013870;28;45502;-71
2022/06/27 14:07:57;;;;;;;;;0.25;0.25;;;;;26.89;26.09;101407.28;5012899;28;45419;-72
2022/06/27 14:10:24;;;;;;;;;0.00;0.00;;;;;26.78;27.80;101410.31;5012220;28;45407;-69
2022/06/27 14:12:51;;;;;;;;;0.75;0.75;;;;;26.94;27.46;101407.72;5013223;28;45492;-69
2022/06/27 14:15:17;;;;;;;;;0.00;0.00;;;;;26.99;27.48;101416.34;5011726;28;45602;-72
2022/06/27 14:17:43;;;;;;;;;1.00;0.00;;;;;26.96;27.46;101398.31;5013250;28;45356;-68
2022/06/27 14:20:14;;;;;;;;;0.00;0.00;;;;;27.25;26.51;101405.34;5013262;28;45381;-70
2022/06/27 14:22:39;;;;;;;;;0.00;0.00;;;;;27.43;26.45;101431.81;5013194;28;45395;-72
2022/06/27 14:25:05;;;;;;;;;1.00;1.00;;;;;27.52;26.26;101429.09;5013620;28;45321;-72
2022/06/27 14:27:31;;;;;;;;;1.00;0.00;;;;;27.67;25.39;101428.34;5013178;28;46130;-72
2022/06/27 14:29:57;;;;;;;;;0.00;0.00;;;;;28.08;24.78;101423.88;5024171;28;45362;-70
2022/06/27 14:32:23;;;;;;;;;0.00;0.00;;;;;28.49;24.46;101430.41;5013868;28;45370;-70
2022/06/27 14:34:48;;;;;;;;;0.25;0.25;;;;;29.06;24.51;101424.06;5014074;28;45517;-71
2022/06/27 14:37:14;;;;;;;;;0.00;0.00;;;;;29.59;22.73;101417.94;5016643;28;45455;-73
2022/06/27 14:39:40;;;;;;;;;0.00;0.00;;;;;29.97;22.89;101432.84;5016479;28;45408;-71
2022/06/27 14:42:06;;;;;;;;;1.75;0.00;;;;;29.50;23.81;101430.91;5016821;28;45476;-72
2022/06/27 14:44:34;;;;;;;;;0.00;0.00;;;;;28.96;24.22;101440.78;5016580;28;45342;-71
2022/06/27 14:47:04;;;;;;;;;0.00;0.00;;;;;28.32;24.59;101433.28;5015826;28;46177;-71
2022/06/27 14:49:30;;;;;;;;;0.00;0.00;;;;;28.21;25.89;101435.34;4998642;28;45356;-70
2022/06/27 14:51:56;;;;;;;;;0.25;0.25;;;;;28.09;26.08;101439.38;5016422;28;45482;-68
2022/06/27 14:54:22;;;;;;;;;0.00;0.00;;;;;27.67;25.72;101442.13;5016549;28;45294;-71
2022/06/27 14:56:47;;;;;;;;;1.00;0.00;;;;;27.26;26.37;101431.88;5016212;28;46357;-73
2022/06/27 14:59:13;;;;;;;;;0.00;0.00;;;;;27.26;27.60;101438.25;5016562;28;45368;-72
2022/06/27 15:01:38;;;;;;;;;0.00;0.00;;;;;27.32;27.47;101440.34;4998638;28;45348;-72
2022/06/27 15:04:04;;;;;;;;;0.00;0.00;;;;;27.61;26.90;101459.31;5016444;28;45501;-73
2022/06/27 15:06:30;;;;;;;;;0.00;0.00;;;;;27.47;26.43;101429.63;5016186;28;46360;-73
2022/06/27 15:08:55;;;;;;;;;0.75;0.00;;;;;27.39;26.66;101443.34;5016350;28;45352;-72
2022/06/27 15:11:36;;;;;;;;;0.00;0.00;;;;;27.11;26.37;101440.72;5016309;28;45338;-71
2022/06/27 15:14:03;;;;;;;;;1.50;0.00;;;;;26.80;26.70;101466.03;5016105;28;45623;-73
2022/06/27 15:16:32;;;;;;;;;0.00;0.00;;;;;26.43;27.23;101438.69;5016017;28;45918;-71
2022/06/27 15:18:57;;;;;;;;;0.00;0.00;;;;;26.29;27.71;101445.56;5015840;28;45411;-74
2022/06/27 15:21:23;;;;;;;;;0.00;0.00;;;;;25.95;27.33;101442.56;5016250;28;45352;-73
2022/06/27 15:23:48;;;;;;;;;0.00;0.00;;;;;25.78;28.02;101452.50;5015858;28;45467;-72
2022/06/27 15:26:13;;;;;;;;;0.00;0.00;;;;;25.65;27.61;101440.13;5015977;28;46306;-71
2022/06/27 15:28:39;;;;;;;;;0.00;0.00;;;;;25.68;28.01;101423.34;5016040;28;45282;-72
2022/06/27 15:31:04;;;;;;;;;0.00;0.00;;;;;26.19;27.74;101440.13;5015835;28;45332;-71
2022/06/27 15:33:29;;;;;;;;;0.00;0.00;;;;;26.69;26.34;101464.41;5014803;28;45632;-72
2022/06/27 15:35:55;;;;;;;;;0.00;0.00;;;;;26.96;26.53;101441.47;5015763;28;45340;-70
2022/06/27 15:38:20;;;;;;;;;0.00;0.00;;;;;27.46;26.95;101427.88;5015613;28;45459;-73
2022/06/27 15:40:45;;;;;;;;;0.00;0.00;;;;;28.08;24.95;101451.44;5015923;28;45436;-72
2022/06/27 15:43:11;;;;;;;;;1.00;0.00;;;;;28.38;24.28;101444.50;5015993;28;45318;-74
2022/06/27 15:45:38;;;;;;;;;0.00;0.00;;;;;28.77;24.42;101442.00;4997270;28;46346;-73
2022/06/27 15:48:04;;;;;;;;;0.75;0.00;;;;;28.96;23.81;101422.34;5015913;28;45173;-72
2022/06/27 15:50:30;;;;;;;;;0.00;0.00;;;;;29.17;23.24;101440.28;5015642;28;45357;-75
2022/06/27 15:52:57;;;;;;;;;0.00;0.00;;;;;29.28;24.69;101439.91;4996638;28;46599;-71
2022/06/27 15:55:22;;;;;;;;;0.00;0.00;;;;;29.08;23.73;101446.84;5015525;28;46273;-73
2022/06/27 15:57:48;;;;;;;;;1.25;0.00;;;;;28.69;24.72;101443.84;5015522;28;45450;-71
2022/06/27 16:00:15;;;;;;;;;0.00;0.00;;;;;28.40;24.57;101447.09;5016030;28;45304;-73
2022/06/27 16:02:41;;;;;;;;;1.00;0.00;;;;;28.10;24.95;101460.41;5015049;28;45388;-73
2022/06/27 16:05:09;;;;;;;;;0.00;0.00;;;;;27.75;25.53;101450.44;5015602;28;45510;-73